Time;durP1;ratioP1;P1;durP2;ratioP2;P2;SDS_P1;SDS_P2;PMS_P1;PMS_P2;Temp;Humidity;BMP_temperature;BMP_pressure;BME280_temperature;BME280_humidity;BME280_pressure;Samples;Min_cycle;Max_cycle;Signal;HPM_P1;HPM_P2
2023/07/17 00:00:49;;;;;;;7.20;2.63;;;17.10;98.80;;;;;;4992851;28;20054;-67
2023/07/17 00:03:14;;;;;;;10.07;2.80;;;17.30;99.80;;;;;;4997961;28;20395;-67
2023/07/17 00:05:40;;;;;;;10.05;2.55;;;17.20;99.90;;;;;;4994734;28;20038;-68
2023/07/17 00:08:06;;;;;;;11.32;3.38;;;17.20;99.20;;;;;;4996137;28;20038;-67
2023/07/17 00:10:32;;;;;;;11.38;2.90;;;;;;;;;;4994802;28;20123;-67
2023/07/17 00:12:58;;;;;;;11.05;3.58;;;16.90;90.80;;;;;;4994023;28;20117;-67
2023/07/17 00:15:24;;;;;;;7.60;2.88;;;17.00;93.30;;;;;;5000560;28;20180;-67
2023/07/17 00:17:49;;;;;;;7.95;2.75;;;17.00;94.40;;;;;;4999732;28;20069;-67
2023/07/17 00:20:15;;;;;;;10.27;3.50;;;17.10;96.30;;;;;;4989713;28;20055;-68
2023/07/17 00:22:41;;;;;;;11.80;2.92;;;17.20;96.70;;;;;;4996403;28;20061;-67
2023/07/17 00:25:07;;;;;;;8.38;2.63;;;16.90;97.00;;;;;;4987637;28;20061;-67
2023/07/17 00:27:35;;;;;;;8.88;2.70;;;17.10;88.30;;;;;;4999571;28;20041;-67
2023/07/17 00:30:00;;;;;;;6.90;2.90;;;16.80;82.80;;;;;;4995144;28;20046;-67
2023/07/17 00:32:26;;;;;;;13.10;2.40;;;16.80;87.50;;;;;;4997069;28;20398;-67
2023/07/17 00:34:52;;;;;;;10.38;2.75;;;17.80;87.50;;;;;;5004328;28;20048;-68
2023/07/17 00:37:17;;;;;;;11.30;2.38;;;16.70;59.20;;;;;;4992020;28;20072;-67
2023/07/17 00:39:43;;;;;;;10.25;3.08;;;17.10;77.60;;;;;;5000608;28;20451;-67
2023/07/17 00:42:09;;;;;;;7.90;2.50;;;;;;;;;;4979181;28;20062;-67
2023/07/17 00:44:35;;;;;;;13.30;3.03;;;16.80;61.00;;;;;;5008176;28;20455;-67
2023/07/17 00:47:02;;;;;;;9.70;2.70;;;16.90;67.90;;;;;;4989527;28;20034;-67
2023/07/17 00:49:29;;;;;;;8.40;2.60;;;17.00;84.70;;;;;;4984380;28;20078;-69
2023/07/17 00:51:57;;;;;;;9.77;3.05;;;16.90;89.60;;;;;;4995061;28;20077;-69
2023/07/17 00:54:23;;;;;;;12.60;2.60;;;16.60;97.00;;;;;;4991906;28;20061;-69
2023/07/17 00:56:49;;;;;;;11.35;2.70;;;16.80;94.10;;;;;;4991465;28;20411;-67
2023/07/17 00:59:15;;;;;;;7.72;2.85;;;16.90;95.80;;;;;;5011232;28;20050;-67
2023/07/17 01:01:41;;;;;;;7.65;2.95;;;17.00;99.90;;;;;;4995413;28;20046;-67
2023/07/17 01:04:08;;;;;;;12.45;2.63;;;16.90;99.90;;;;;;5000225;28;20121;-68
2023/07/17 01:06:38;;;;;;;10.07;2.63;;;16.80;99.90;;;;;;5004777;28;20038;-68
2023/07/17 01:09:04;;;;;;;12.90;3.33;;;17.20;99.90;;;;;;4994449;28;20053;-68
2023/07/17 01:11:30;;;;;;;8.65;2.58;;;16.90;99.90;;;;;;4990728;28;20277;-68
2023/07/17 01:13:56;;;;;;;11.50;3.45;;;17.10;99.90;;;;;;5006692;28;20046;-68
2023/07/17 01:16:22;;;;;;;10.38;2.83;;;16.90;99.90;;;;;;4990413;28;20066;-68
2023/07/17 01:18:47;;;;;;;10.00;2.88;;;16.70;99.90;;;;;;4995610;28;20045;-68
2023/07/17 01:21:17;;;;;;;10.75;2.83;;;16.80;99.90;;;;;;4998672;28;20034;-68
2023/07/17 01:23:44;;;;;;;14.70;3.22;;;17.10;99.90;;;;;;4991069;28;20046;-68
2023/07/17 01:26:14;;;;;;;10.57;3.05;;;17.20;99.90;;;;;;4990344;28;20034;-68
2023/07/17 01:28:39;;;;;;;17.30;2.92;;;17.10;99.90;;;;;;4996020;28;20042;-68
2023/07/17 01:31:05;;;;;;;15.13;3.30;;;16.30;99.90;;;;;;4997512;28;20334;-68
2023/07/17 01:33:31;;;;;;;7.95;2.85;;;17.00;99.90;;;;;;4990401;28;20089;-68
2023/07/17 01:35:57;;;;;;;13.95;4.55;;;16.50;99.90;;;;;;4998626;28;20046;-68
2023/07/17 01:38:23;;;;;;;11.63;3.25;;;16.70;99.90;;;;;;5001506;28;20060;-68
2023/07/17 01:40:49;;;;;;;10.82;2.97;;;16.40;99.90;;;;;;4998961;28;20038;-68
2023/07/17 01:43:15;;;;;;;10.95;3.63;;;16.90;99.90;;;;;;4989062;28;20105;-68
2023/07/17 01:45:40;;;;;;;11.73;3.58;;;16.70;99.90;;;;;;4990975;28;20452;-68
2023/07/17 01:48:06;;;;;;;10.57;3.65;;;16.50;99.90;;;;;;4997714;28;20043;-68
2023/07/17 01:50:32;;;;;;;12.23;4.05;;;16.50;99.90;;;;;;4988679;28;20042;-68
2023/07/17 01:52:58;;;;;;;11.50;3.08;;;15.90;99.90;;;;;;4996786;28;20042;-68
2023/07/17 01:55:24;;;;;;;10.13;3.63;;;;;;;;;;4993317;28;20041;-68
2023/07/17 01:57:49;;;;;;;13.35;3.72;;;16.60;99.90;;;;;;4999869;28;20034;-68
2023/07/17 02:00:15;;;;;;;13.00;3.63;;;16.80;99.90;;;;;;4991865;28;20463;-68
2023/07/17 02:02:41;;;;;;;12.82;3.72;;;16.90;99.90;;;;;;4992180;28;20547;-68
2023/07/17 02:05:07;;;;;;;10.77;3.25;;;15.90;99.90;;;;;;5014617;28;20036;-67
2023/07/17 02:07:32;;;;;;;12.07;3.60;;;16.30;99.90;;;;;;4998764;28;20361;-68
2023/07/17 02:09:58;;;;;;;15.10;3.20;;;16.20;99.90;;;;;;5006274;28;20108;-68
2023/07/17 02:12:24;;;;;;;12.38;3.30;;;16.40;99.90;;;;;;4998983;28;20046;-68
2023/07/17 02:14:49;;;;;;;13.15;3.67;;;16.40;99.90;;;;;;4998856;28;20039;-68
2023/07/17 02:17:15;;;;;;;10.18;3.80;;;16.80;99.90;;;;;;4998415;28;20034;-68
2023/07/17 02:19:41;;;;;;;13.02;3.72;;;16.40;99.90;;;;;;4994730;28;20085;-68
2023/07/17 02:22:06;;;;;;;17.10;3.60;;;16.90;99.90;;;;;;4990457;28;20042;-68
2023/07/17 02:24:32;;;;;;;13.55;4.00;;;16.00;99.90;;;;;;4993919;28;20125;-67
2023/07/17 02:26:58;;;;;;;11.90;3.63;;;16.50;99.90;;;;;;4989755;28;20141;-67
2023/07/17 02:29:25;;;;;;;15.07;3.58;;;16.40;99.90;;;;;;5001121;28;20045;-68
2023/07/17 02:31:50;;;;;;;10.75;3.38;;;16.00;99.90;;;;;;4998564;28;20256;-68
2023/07/17 02:34:17;;;;;;;12.88;3.78;;;16.30;99.90;;;;;;4999124;28;20543;-68
2023/07/17 02:36:43;;;;;;;12.40;3.58;;;;;;;;;;4991395;28;20114;-68
2023/07/17 02:39:09;;;;;;;10.32;3.42;;;16.40;99.90;;;;;;4999752;28;20065;-68
2023/07/17 02:41:34;;;;;;;11.73;3.50;;;15.70;99.90;;;;;;5000858;28;20098;-68
2023/07/17 02:44:00;;;;;;;12.80;2.95;;;16.40;99.90;;;;;;4989589;28;20041;-68
2023/07/17 02:46:26;;;;;;;13.27;3.88;;;16.40;99.90;;;;;;5001244;28;20042;-68
2023/07/17 02:48:52;;;;;;;14.48;4.47;;;16.40;99.90;;;;;;5022374;28;20404;-68
2023/07/17 02:51:18;;;;;;;16.88;3.60;;;15.70;99.90;;;;;;4984059;28;20045;-68
2023/07/17 02:53:44;;;;;;;13.50;3.60;;;16.40;99.90;;;;;;4996340;28;20116;-68
2023/07/17 02:56:10;;;;;;;15.13;3.22;;;15.80;99.90;;;;;;5003865;28;20262;-68
2023/07/17 02:58:43;;;;;;;13.52;4.40;;;16.20;99.90;;;;;;4992490;28;20492;-68
2023/07/17 03:01:10;;;;;;;16.85;4.20;;;15.70;99.90;;;;;;4990566;28;20038;-66
2023/07/17 03:03:37;;;;;;;14.57;4.03;;;16.60;99.90;;;;;;4991176;28;20038;-66
2023/07/17 03:06:04;;;;;;;15.23;3.90;;;16.50;99.90;;;;;;5001955;28;20065;-66
2023/07/17 03:08:29;;;;;;;14.88;5.53;;;15.90;99.90;;;;;;4990530;28;20042;-67
2023/07/17 03:10:55;;;;;;;13.80;4.30;;;16.60;99.90;;;;;;5001178;28;20042;-68
2023/07/17 03:13:21;;;;;;;14.93;4.93;;;15.60;99.90;;;;;;5021221;28;20042;-69
2023/07/17 03:15:48;;;;;;;19.95;4.70;;;16.30;99.90;;;;;;4993655;28;20050;-69
2023/07/17 03:18:14;;;;;;;12.95;3.75;;;16.30;99.90;;;;;;5022424;28;20045;-70
2023/07/17 03:20:44;;;;;;;21.67;4.65;;;16.40;99.90;;;;;;4992456;28;20593;-67
2023/07/17 03:23:10;;;;;;;11.65;4.38;;;16.20;99.90;;;;;;5001919;28;20061;-69
2023/07/17 03:25:36;;;;;;;13.77;3.97;;;16.40;99.90;;;;;;5000016;28;20499;-69
2023/07/17 03:28:02;;;;;;;19.65;4.40;;;15.70;99.90;;;;;;5000848;28;20041;-67
2023/07/17 03:30:31;;;;;;;17.73;4.55;;;16.30;99.90;;;;;;4999524;28;20046;-67
2023/07/17 03:32:57;;;;;;;14.60;4.13;;;16.40;99.90;;;;;;4995590;28;20064;-67
2023/07/17 03:35:22;;;;;;;16.77;4.47;;;16.30;99.90;;;;;;5002822;28;20441;-67
2023/07/17 03:37:49;;;;;;;18.30;5.07;;;;;;;;;;4994173;28;20042;-68
2023/07/17 03:40:15;;;;;;;14.77;4.68;;;;;;;;;;4996904;28;20042;-68
2023/07/17 03:42:40;;;;;;;20.83;4.63;;;16.10;99.90;;;;;;4994456;28;20056;-68
2023/07/17 03:45:07;;;;;;;11.93;4.38;;;15.80;99.90;;;;;;4995600;28;20488;-68
2023/07/17 03:47:32;;;;;;;15.05;4.47;;;15.70;99.90;;;;;;4993481;28;20063;-67
2023/07/17 03:49:58;;;;;;;18.33;4.90;;;16.10;99.90;;;;;;4991606;28;20416;-67
2023/07/17 03:52:24;;;;;;;16.85;4.70;;;16.30;99.90;;;;;;4992691;28;20136;-67
2023/07/17 03:54:49;;;;;;;15.27;4.82;;;15.50;99.90;;;;;;4996972;28;20129;-67
2023/07/17 03:57:15;;;;;;;15.07;4.47;;;16.30;99.90;;;;;;5000024;28;20033;-67
2023/07/17 03:59:53;;;;;;;18.02;5.60;;;16.40;99.90;;;;;;4993219;28;20042;-67
2023/07/17 04:02:19;;;;;;;16.70;5.55;;;15.50;99.90;;;;;;5002775;28;20117;-67
2023/07/17 04:04:45;;;;;;;13.55;4.35;;;16.10;99.90;;;;;;4998767;28;20101;-68
2023/07/17 04:07:11;;;;;;;21.10;5.45;;;16.50;99.90;;;;;;5012374;28;20043;-67
2023/07/17 04:09:37;;;;;;;14.00;5.07;;;15.60;99.90;;;;;;5013636;28;20401;-68
2023/07/17 04:12:04;;;;;;;17.02;5.32;;;16.50;99.90;;;;;;4993622;28;20411;-68
2023/07/17 04:14:33;;;;;;;18.50;4.38;;;16.20;99.90;;;;;;4992447;28;20125;-67
2023/07/17 04:17:00;;;;;;;15.75;4.38;;;16.00;99.90;;;;;;5005068;28;20164;-67
2023/07/17 04:19:27;;;;;;;20.27;4.70;;;16.30;99.90;;;;;;4989290;28;20034;-67
2023/07/17 04:21:53;;;;;;;17.35;4.80;;;16.50;99.90;;;;;;5004818;28;20038;-67
2023/07/17 04:24:18;;;;;;;14.88;4.22;;;15.50;99.90;;;;;;5004484;28;20045;-68
2023/07/17 04:26:44;;;;;;;13.13;4.97;;;16.30;99.90;;;;;;4992882;28;20165;-67
2023/07/17 04:29:13;;;;;;;19.42;4.18;;;16.50;99.90;;;;;;4993223;28;20038;-68
2023/07/17 04:31:38;;;;;;;12.68;4.97;;;16.00;99.90;;;;;;4991113;28;20411;-67
2023/07/17 04:34:04;;;;;;;13.00;4.22;;;16.40;99.90;;;;;;5000490;28;20042;-67
2023/07/17 04:36:30;;;;;;;18.75;4.90;;;16.00;99.90;;;;;;4999519;28;20069;-68
2023/07/17 04:38:55;;;;;;;19.50;5.10;;;15.50;99.90;;;;;;4992589;28;20041;-67
2023/07/17 04:41:21;;;;;;;20.48;5.20;;;15.80;99.90;;;;;;5012717;28;20097;-67
2023/07/17 04:43:47;;;;;;;14.63;4.63;;;16.80;99.90;;;;;;5003925;28;20034;-67
2023/07/17 04:46:14;;;;;;;13.73;4.72;;;16.50;99.90;;;;;;5006377;28;20030;-67
2023/07/17 04:48:39;;;;;;;14.23;4.43;;;16.50;99.90;;;;;;4992323;28;20034;-67
2023/07/17 04:51:06;;;;;;;21.88;5.68;;;16.50;99.90;;;;;;4990911;28;20420;-67
2023/07/17 04:53:31;;;;;;;20.65;5.57;;;15.70;99.90;;;;;;5003157;28;20038;-68
2023/07/17 04:55:57;;;;;;;14.77;5.40;;;15.60;99.90;;;;;;4991828;28;20550;-67
2023/07/17 04:58:25;;;;;;;16.98;5.10;;;16.50;99.90;;;;;;5016571;28;20129;-67
2023/07/17 05:00:51;;;;;;;16.13;4.65;;;15.70;99.90;;;;;;4987063;28;20093;-67
2023/07/17 05:03:17;;;;;;;13.23;4.50;;;16.00;99.90;;;;;;4997840;28;20069;-67
2023/07/17 05:05:50;;;;;;;19.00;4.93;;;16.30;99.90;;;;;;4981788;28;20045;-67
2023/07/17 05:08:17;;;;;;;21.40;4.47;;;16.50;99.90;;;;;;4990195;28;20038;-67
2023/07/17 05:10:43;;;;;;;13.27;4.30;;;17.10;99.90;;;;;;4985407;28;20031;-67
2023/07/17 05:13:08;;;;;;;13.10;4.38;;;16.70;99.90;;;;;;4987110;28;20035;-67
2023/07/17 05:15:34;;;;;;;16.42;4.85;;;16.30;99.90;;;;;;5010343;28;20459;-67
2023/07/17 05:18:03;;;;;;;16.65;5.50;;;17.10;99.90;;;;;;4995032;28;20034;-67
2023/07/17 05:20:29;;;;;;;15.55;4.78;;;;;;;;;;5016825;28;20427;-67
2023/07/17 05:22:55;;;;;;;12.40;5.07;;;16.40;99.90;;;;;;4992334;28;20030;-67
2023/07/17 05:25:21;;;;;;;14.02;4.47;;;16.90;99.90;;;;;;4989102;28;20053;-67
2023/07/17 05:27:46;;;;;;;19.40;5.80;;;17.00;99.90;;;;;;4977973;28;20030;-68
2023/07/17 05:30:12;;;;;;;15.13;4.82;;;16.50;99.90;;;;;;4976915;28;20031;-68
2023/07/17 05:32:38;;;;;;;13.65;5.45;;;16.30;99.90;;;;;;4989056;28;20038;-67
2023/07/17 05:35:04;;;;;;;17.73;5.68;;;16.10;1.00;;;;;;4978573;28;20122;-68
2023/07/17 05:37:30;;;;;;;13.63;5.07;;;16.70;1.00;;;;;;4987072;28;20042;-69
2023/07/17 05:39:56;;;;;;;16.98;5.90;;;16.30;1.00;;;;;;4983682;28;20035;-68
2023/07/17 05:42:21;;;;;;;13.68;5.13;;;16.60;11.10;;;;;;4991511;28;20091;-68
2023/07/17 05:44:47;;;;;;;13.23;4.47;;;15.70;1.00;;;;;;4979130;28;20076;-69
2023/07/17 05:47:12;;;;;;;14.40;4.28;;;15.40;11.60;;;;;;4985972;28;20038;-68
2023/07/17 05:49:38;;;;;;;15.75;4.63;;;15.90;6.30;;;;;;4986824;28;20038;-68
2023/07/17 05:52:05;;;;;;;17.40;4.75;;;15.40;36.50;;;;;;4993586;28;20129;-68
2023/07/17 05:54:30;;;;;;;14.85;4.82;;;15.00;86.10;;;;;;4980297;28;20134;-68
2023/07/17 05:56:56;;;;;;;16.67;4.85;;;16.00;98.90;;;;;;4982845;28;20117;-68
2023/07/17 05:59:22;;;;;;;15.68;5.20;;;15.40;99.90;;;;;;4979315;28;20077;-68
2023/07/17 06:01:47;;;;;;;14.38;4.95;;;15.20;99.90;;;;;;4976132;28;20042;-69
2023/07/17 06:04:13;;;;;;;13.95;5.45;;;15.90;99.90;;;;;;4990205;28;20035;-68
2023/07/17 06:06:39;;;;;;;14.60;5.00;;;15.60;99.90;;;;;;4993542;28;20069;-67
2023/07/17 06:09:04;;;;;;;14.68;5.43;;;16.40;99.90;;;;;;4982701;28;20499;-64
2023/07/17 06:11:30;;;;;;;9.95;3.67;;;15.30;99.90;;;;;;4979897;28;20039;-58
2023/07/17 06:13:56;;;;;;;13.45;4.80;;;;;;;;;;4974618;28;20049;-63
2023/07/17 06:16:22;;;;;;;9.30;3.55;;;15.00;99.90;;;;;;4978630;28;20042;-65
2023/07/17 06:18:47;;;;;;;10.90;3.75;;;15.10;99.90;;;;;;4987425;28;20084;-66
2023/07/17 06:21:13;;;;;;;14.02;4.63;;;15.10;99.90;;;;;;4980594;28;20481;-67
2023/07/17 06:23:39;;;;;;;10.70;4.18;;;14.90;99.90;;;;;;4991303;28;20045;-67
2023/07/17 06:26:04;;;;;;;15.13;5.22;;;15.00;99.90;;;;;;4991589;28;20052;-67
2023/07/17 06:28:30;;;;;;;17.25;5.05;;;14.40;99.90;;;;;;5009970;28;20276;-68
2023/07/17 06:30:56;;;;;;;14.30;5.75;;;15.10;99.90;;;;;;4994614;28;20038;-68
2023/07/17 06:33:25;;;;;;;12.57;4.80;;;14.70;99.90;;;;;;5003088;28;20568;-68
2023/07/17 06:35:51;;;;;;;22.60;5.50;;;;;;;;;;4994481;28;20481;-68
2023/07/17 06:38:17;;;;;;;13.68;5.15;;;14.70;1.00;;;;;;4979097;28;20054;-69
2023/07/17 06:40:42;;;;;;;13.48;4.47;;;15.00;1.00;;;;;;4983861;28;20034;-70
2023/07/17 06:43:09;;;;;;;22.00;5.80;;;14.70;1.00;;;;;;4980907;28;20034;-70
2023/07/17 06:45:35;;;;;;;19.58;5.22;;;;;;;;;;4974444;28;20031;-71
2023/07/17 06:48:01;;;;;;;18.00;5.20;;;14.90;1.00;;;;;;4989997;28;20069;-71
2023/07/17 06:50:27;;;;;;;16.25;4.78;;;14.90;1.00;;;;;;4978228;28;20479;-73
2023/07/17 06:52:52;;;;;;;11.90;3.97;;;15.30;99.90;;;;;;4989282;28;20084;-72
2023/07/17 06:55:19;;;;;;;13.10;3.53;;;15.50;99.90;;;;;;5019704;28;20292;-72
2023/07/17 06:57:45;;;;;;;11.40;4.05;;;14.80;99.90;;;;;;4992494;28;20042;-73
2023/07/17 07:00:11;;;;;;;16.27;4.85;;;14.80;99.90;;;;;;5019244;28;20109;-72
2023/07/17 07:02:46;;;;;;;13.48;4.45;;;15.50;99.90;;;;;;4989694;28;20121;-73
2023/07/17 07:05:12;;;;;;;7.35;3.05;;;15.80;99.90;;;;;;5011589;28;20378;-73
2023/07/17 07:07:38;;;;;;;16.17;4.45;;;15.10;99.90;;;;;;4991318;28;20057;-72
2023/07/17 07:10:04;;;;;;;10.25;3.95;;;15.00;99.90;;;;;;5007615;28;20041;-72
2023/07/17 07:12:30;;;;;;;13.05;3.83;;;14.90;99.90;;;;;;4991036;28;20043;-72
2023/07/17 07:14:55;;;;;;;11.95;3.90;;;16.10;99.90;;;;;;5017445;28;20065;-72
2023/07/17 07:17:21;;;;;;;12.20;3.47;;;16.10;1.00;;;;;;5006933;28;20047;-70
2023/07/17 07:19:47;;;;;;;8.32;2.53;;;15.00;31.60;;;;;;4989491;28;20097;-70
2023/07/17 07:22:12;;;;;;;10.77;3.40;;;15.80;1.00;;;;;;4996020;28;20100;-70
2023/07/17 07:24:41;;;;;;;17.50;4.30;;;15.90;1.00;;;;;;4991195;28;20393;-69
2023/07/17 07:27:07;;;;;;;15.23;3.95;;;16.00;1.00;;;;;;5001303;28;20518;-69
2023/07/17 07:29:33;;;;;;;11.15;3.67;;;15.50;1.00;;;;;;4994545;28;20042;-70
2023/07/17 07:31:58;;;;;;;11.48;3.72;;;15.50;1.00;;;;;;4994612;28;20078;-69
2023/07/17 07:34:24;;;;;;;12.30;3.92;;;16.50;1.00;;;;;;4998264;28;20404;-69
2023/07/17 07:36:50;;;;;;;14.40;3.75;;;16.00;1.00;;;;;;4996959;28;20046;-69
2023/07/17 07:39:15;;;;;;;12.77;3.90;;;16.30;1.00;;;;;;4990921;28;20038;-69
2023/07/17 07:41:41;;;;;;;12.20;3.88;;;16.00;1.00;;;;;;5012432;28;20046;-69
2023/07/17 07:44:06;;;;;;;11.10;3.00;;;15.70;1.00;;;;;;5000826;28;20088;-69
2023/07/17 07:46:32;;;;;;;8.38;3.08;;;15.30;99.90;;;;;;4980255;28;20128;-69
2023/07/17 07:48:58;;;;;;;11.32;3.92;;;15.70;99.90;;;;;;5013251;28;20042;-69
2023/07/17 07:51:24;;;;;;;13.98;3.67;;;16.00;99.90;;;;;;4993541;28;20066;-69
2023/07/17 07:53:49;;;;;;;9.55;3.22;;;15.90;1.00;;;;;;4997856;28;20569;-69
2023/07/17 07:56:15;;;;;;;8.93;3.20;;;16.20;99.90;;;;;;4996327;28;20041;-69
2023/07/17 07:58:41;;;;;;;8.80;2.83;;;16.30;99.90;;;;;;4995768;28;20069;-70
2023/07/17 08:01:07;;;;;;;9.35;3.00;;;16.00;99.90;;;;;;5002222;28;20398;-69
2023/07/17 08:03:34;;;;;;;10.38;3.13;;;16.20;99.90;;;;;;4990612;28;20411;-69
2023/07/17 08:05:59;;;;;;;8.20;2.65;;;15.50;99.90;;;;;;4994439;28;20045;-69
2023/07/17 08:08:25;;;;;;;7.93;2.63;;;15.60;99.90;;;;;;5005513;28;20399;-69
2023/07/17 08:10:54;;;;;;;12.30;3.70;;;16.30;99.90;;;;;;4990368;28;20408;-69
2023/07/17 08:13:20;;;;;;;10.15;2.75;;;16.80;99.90;;;;;;5014378;28;20397;-69
2023/07/17 08:15:46;;;;;;;8.15;2.95;;;16.80;99.90;;;;;;4998905;28;20031;-69
2023/07/17 08:18:12;;;;;;;9.80;2.88;;;16.40;99.90;;;;;;5002436;28;20559;-69
2023/07/17 08:20:38;;;;;;;8.40;2.72;;;16.70;99.90;;;;;;4998960;28;20038;-69
2023/07/17 08:23:03;;;;;;;8.98;2.42;;;16.50;32.90;;;;;;4993339;28;20399;-69
2023/07/17 08:25:29;;;;;;;9.50;2.80;;;17.00;28.30;;;;;;4978376;28;20189;-70
2023/07/17 08:27:54;;;;;;;7.38;2.42;;;17.20;1.00;;;;;;4997180;28;20034;-70
2023/07/17 08:30:20;;;;;;;9.32;2.53;;;17.60;6.40;;;;;;4996237;28;20050;-69
2023/07/17 08:32:46;;;;;;;6.13;2.00;;;17.90;30.10;;;;;;5015968;28;20066;-69
2023/07/17 08:35:12;;;;;;;10.18;2.80;;;17.10;1.00;;;;;;5009986;28;20038;-69
2023/07/17 08:37:37;;;;;;;8.15;3.00;;;17.90;1.00;;;;;;5019461;28;20053;-70
2023/07/17 08:40:04;;;;;;;10.68;2.65;;;16.80;1.00;;;;;;4992640;28;20034;-69
2023/07/17 08:42:30;;;;;;;9.02;3.15;;;17.10;1.00;;;;;;5002661;28;20038;-69
2023/07/17 08:44:57;;;;;;;7.15;2.50;;;17.10;1.00;;;;;;4995588;28;20542;-70
2023/07/17 08:47:23;;;;;;;7.45;2.50;;;17.20;1.00;;;;;;4989411;28;20125;-69
2023/07/17 08:49:51;;;;;;;7.10;2.38;;;17.70;1.00;;;;;;4993674;28;20295;-69
2023/07/17 08:52:18;;;;;;;8.25;2.40;;;17.80;1.00;;;;;;4998431;28;20033;-69
2023/07/17 08:54:43;;;;;;;11.05;2.95;;;17.10;1.00;;;;;;4994938;28;20042;-70
2023/07/17 08:57:10;;;;;;;7.85;2.88;;;18.00;1.00;;;;;;4991922;28;20096;-70
2023/07/17 08:59:37;;;;;;;10.45;3.17;;;18.20;1.00;;;;;;4995487;28;20180;-69
2023/07/17 09:02:04;;;;;;;7.05;2.20;;;17.50;1.00;;;;;;5019451;28;20134;-69
2023/07/17 09:04:34;;;;;;;7.22;2.13;;;17.60;99.90;;;;;;4987477;28;20042;-69
2023/07/17 09:07:00;;;;;;;5.60;1.95;;;17.70;1.00;;;;;;4994569;28;20044;-69
2023/07/17 09:09:25;;;;;;;10.02;2.53;;;17.30;99.90;;;;;;5006100;28;20033;-68
2023/07/17 09:12:08;;;;;;;6.78;2.42;;;17.60;99.90;;;;;;5004025;28;20152;-68
2023/07/17 09:14:34;;;;;;;7.85;2.67;;;17.50;99.90;;;;;;5023645;28;20404;-69
2023/07/17 09:17:03;;;;;;;7.75;2.50;;;18.50;99.90;;;;;;4991368;28;20034;-68
2023/07/17 09:19:32;;;;;;;8.07;2.10;;;18.40;99.90;;;;;;5008638;28;20126;-68
2023/07/17 09:21:59;;;;;;;12.98;3.47;;;17.60;99.90;;;;;;4988198;28;20070;-68
2023/07/17 09:24:27;;;;;;;8.10;2.60;;;18.20;99.90;;;;;;4991876;28;20039;-68
2023/07/17 09:26:56;;;;;;;7.88;2.85;;;17.50;99.90;;;;;;5004013;28;20077;-68
2023/07/17 09:29:25;;;;;;;8.45;3.05;;;18.40;99.90;;;;;;4999944;28;20476;-68
2023/07/17 09:31:51;;;;;;;10.10;2.60;;;18.10;99.90;;;;;;5011087;28;20062;-68
2023/07/17 09:34:18;;;;;;;10.23;2.72;;;18.00;99.90;;;;;;5000658;28;20046;-68
2023/07/17 09:36:44;;;;;;;7.15;2.65;;;;;;;;;;4992434;28;20046;-68
2023/07/17 09:39:12;;;;;;;11.10;2.80;;;17.70;99.90;;;;;;4994116;28;20053;-68
2023/07/17 09:41:37;;;;;;;8.30;2.63;;;18.00;99.90;;;;;;4990647;28;20460;-68
2023/07/17 09:44:07;;;;;;;12.23;2.92;;;17.80;99.90;;;;;;5022643;28;20030;-68
2023/07/17 09:46:34;;;;;;;9.85;2.50;;;17.80;99.90;;;;;;4990783;28;20049;-68
2023/07/17 09:49:03;;;;;;;9.20;2.88;;;19.00;99.90;;;;;;4990955;28;20038;-68
2023/07/17 09:51:29;;;;;;;5.43;2.63;;;18.50;99.90;;;;;;4999838;28;20042;-67
2023/07/17 09:53:57;;;;;;;7.63;2.65;;;18.90;99.90;;;;;;5004874;28;20069;-67
2023/07/17 09:56:26;;;;;;;8.57;2.30;;;19.10;99.90;;;;;;4998080;28;20125;-67
2023/07/17 09:58:57;;;;;;;7.18;2.40;;;18.80;99.90;;;;;;5001099;28;20046;-68
2023/07/17 10:01:25;;;;;;;6.20;2.00;;;19.20;58.40;;;;;;4996407;28;20050;-68
2023/07/17 10:03:51;;;;;;;6.45;2.58;;;18.40;1.00;;;;;;4989347;28;20034;-68
2023/07/17 10:06:19;;;;;;;8.73;2.83;;;19.10;64.80;;;;;;4991724;28;20113;-68
2023/07/17 10:08:47;;;;;;;6.57;2.47;;;19.20;99.90;;;;;;5009419;28;20050;-67
2023/07/17 10:11:17;;;;;;;7.40;2.72;;;19.20;3.50;;;;;;5020907;28;20117;-67
2023/07/17 10:13:44;;;;;;;5.53;2.08;;;18.30;18.70;;;;;;5016432;28;20054;-67
2023/07/17 10:16:15;;;;;;;6.65;2.35;;;19.00;1.00;;;;;;5017732;28;20047;-67
2023/07/17 10:18:49;;;;;;;8.38;2.38;;;18.50;1.00;;;;;;4994543;28;20054;-67
2023/07/17 10:21:18;;;;;;;8.50;2.70;;;19.00;28.40;;;;;;4996775;28;20092;-67
2023/07/17 10:23:46;;;;;;;7.03;2.53;;;19.00;1.00;;;;;;5013076;28;20129;-67
2023/07/17 10:26:13;;;;;;;6.95;2.55;;;18.80;1.00;;;;;;5013636;28;20038;-67
2023/07/17 10:28:41;;;;;;;5.63;2.53;;;18.70;1.00;;;;;;4987362;28;20055;-67
2023/07/17 10:31:09;;;;;;;7.10;2.47;;;18.90;1.00;;;;;;4986468;28;20037;-67
2023/07/17 10:33:37;;;;;;;10.75;3.15;;;18.90;1.00;;;;;;4994541;28;20119;-67
2023/07/17 10:36:03;;;;;;;7.05;2.00;;;19.20;69.70;;;;;;5010317;28;20041;-67
2023/07/17 10:38:36;;;;;;;8.50;2.40;;;19.40;1.00;;;;;;5002072;28;20470;-67
2023/07/17 10:41:23;;;;;;;6.17;2.13;;;19.10;1.00;;;;;;4990814;28;20038;-67
2023/07/17 10:43:53;;;;;;;6.28;2.42;;;19.10;1.00;;;;;;5001816;28;20038;-67
2023/07/17 10:46:19;;;;;;;6.80;2.38;;;19.60;1.00;;;;;;4987664;28;20093;-67
2023/07/17 10:48:45;;;;;;;5.80;2.00;;;19.00;99.90;;;;;;4992597;28;20058;-67
2023/07/17 10:51:11;;;;;;;6.43;2.25;;;19.20;99.90;;;;;;4990181;28;20065;-67
2023/07/17 10:53:37;;;;;;;7.70;2.00;;;19.30;99.90;;;;;;4997668;28;20084;-67
2023/07/17 10:56:02;;;;;;;9.30;3.03;;;19.20;99.90;;;;;;4992775;28;20042;-67
2023/07/17 10:58:28;;;;;;;6.45;2.30;;;19.50;99.90;;;;;;4987823;28;20039;-67
2023/07/17 11:00:55;;;;;;;9.30;2.50;;;19.20;99.90;;;;;;4997966;28;20125;-66
2023/07/17 11:03:23;;;;;;;8.73;2.63;;;18.70;99.90;;;;;;4995854;28;20347;-67
2023/07/17 11:05:49;;;;;;;11.13;3.20;;;19.60;99.90;;;;;;5021844;28;20527;-67
2023/07/17 11:08:15;;;;;;;6.45;2.63;;;19.50;99.90;;;;;;4995039;28;20034;-67
2023/07/17 11:10:42;;;;;;;7.63;2.60;;;19.50;99.90;;;;;;5020973;28;20046;-67
2023/07/17 11:13:08;;;;;;;6.13;1.75;;;19.20;99.90;;;;;;5009995;28;20046;-67
2023/07/17 11:15:35;;;;;;;6.78;2.55;;;19.20;90.30;;;;;;4999872;28;20065;-67
2023/07/17 11:18:02;;;;;;;5.85;2.20;;;19.90;99.90;;;;;;5007353;28;20407;-67
2023/07/17 11:20:29;;;;;;;6.60;2.53;;;19.50;99.90;;;;;;5001015;28;20053;-67
2023/07/17 11:22:55;;;;;;;13.52;3.10;;;19.50;99.90;;;;;;4989608;28;20042;-67
2023/07/17 11:25:25;;;;;;;9.30;2.50;;;19.40;99.90;;;;;;4992822;28;20048;-67
2023/07/17 11:27:52;;;;;;;10.57;2.88;;;20.30;99.90;;;;;;4998199;28;20073;-67
2023/07/17 11:30:34;;;;;;;7.55;2.75;;;19.80;99.90;;;;;;4999325;28;20044;-67
2023/07/17 11:33:06;;;;;;;6.57;2.53;;;20.30;91.90;;;;;;4993294;28;20050;-67
2023/07/17 11:35:47;;;;;;;8.23;2.10;;;19.20;95.30;;;;;;4994952;28;20050;-66
2023/07/17 11:38:15;;;;;;;5.35;1.65;;;19.50;37.10;;;;;;4985596;28;20046;-67
2023/07/17 11:41:02;;;;;;;10.30;3.00;;;19.70;42.70;;;;;;5000802;28;20050;-67
2023/07/17 11:43:35;;;;;;;7.30;2.30;;;19.80;99.90;;;;;;4990707;28;20069;-67
2023/07/17 11:46:05;;;;;;;10.25;2.83;;;19.80;35.20;;;;;;5001127;28;20034;-67
2023/07/17 11:48:32;;;;;;;7.22;2.40;;;;;;;;;;4997846;28;20042;-67
2023/07/17 11:51:01;;;;;;;5.07;2.17;;;19.50;1.00;;;;;;4995191;28;20461;-67
2023/07/17 11:53:27;;;;;;;9.25;2.20;;;19.80;1.00;;;;;;5009317;28;20100;-67
2023/07/17 11:55:52;;;;;;;6.53;2.45;;;19.80;1.00;;;;;;5003780;28;20042;-67
2023/07/17 11:58:24;;;;;;;5.72;2.95;;;19.90;1.00;;;;;;5002966;28;20034;-67
2023/07/17 12:00:53;;;;;;;8.18;2.80;;;20.10;99.90;;;;;;4999471;28;20044;-67
2023/07/17 12:03:19;;;;;;;7.20;2.50;;;20.70;1.00;;;;;;5001333;28;20029;-67
2023/07/17 12:05:45;;;;;;;6.35;2.50;;;19.90;99.90;;;;;;5024405;28;20035;-67
2023/07/17 12:08:11;;;;;;;6.28;2.03;;;20.00;99.90;;;;;;5005941;28;20038;-67
2023/07/17 12:10:37;;;;;;;7.25;2.38;;;19.80;99.90;;;;;;5001469;28;20038;-67
2023/07/17 12:13:04;;;;;;;7.30;2.22;;;19.70;1.00;;;;;;4998507;28;20045;-67
2023/07/17 12:15:30;;;;;;;7.72;2.40;;;20.70;1.00;;;;;;4992788;28;20038;-67
2023/07/17 12:17:56;;;;;;;7.93;2.78;;;20.90;1.00;;;;;;5024018;28;20133;-67
2023/07/17 12:20:22;;;;;;;7.50;3.50;;;20.80;1.00;;;;;;5005832;28;20065;-67
2023/07/17 12:22:52;;;;;;;8.15;2.72;;;19.80;1.00;;;;;;4993554;28;20121;-67
2023/07/17 12:25:18;;;;;;;8.70;2.92;;;19.90;1.00;;;;;;4994571;28;20089;-67
2023/07/17 12:27:45;;;;;;;7.03;2.78;;;19.90;99.90;;;;;;5012876;28;20037;-67
2023/07/17 12:30:12;;;;;;;11.98;3.13;;;20.50;99.90;;;;;;5006314;28;20077;-67
2023/07/17 12:32:38;;;;;;;8.80;3.13;;;20.00;99.90;;;;;;4994238;28;20129;-67
2023/07/17 12:35:05;;;;;;;7.30;2.95;;;20.20;99.90;;;;;;5000303;28;20435;-67
2023/07/17 12:37:32;;;;;;;8.27;2.88;;;20.10;99.90;;;;;;4995016;28;20046;-66
2023/07/17 12:39:58;;;;;;;9.52;2.95;;;21.10;99.90;;;;;;5002068;28;20042;-66
2023/07/17 12:42:24;;;;;;;6.75;2.53;;;20.40;99.90;;;;;;5004671;28;20046;-66